createdAt,value
2022-10-19T00:00:32.598Z,12.00
2022-10-19T00:01:36.742Z,12.00
2022-10-19T00:02:38.397Z,12.05
2022-10-19T00:03:40.217Z,12.03
2022-10-19T00:04:41.846Z,12.05
2022-10-19T00:05:43.404Z,12.00
2022-10-19T00:06:45.242Z,12.02
2022-10-19T00:07:46.822Z,11.99
2022-10-19T00:08:48.422Z,11.99
2022-10-19T00:09:50.099Z,11.96
2022-10-19T00:10:51.658Z,11.97
2022-10-19T00:11:53.268Z,12.00
2022-10-19T00:12:54.816Z,11.96
2022-10-19T00:13:56.704Z,11.97
2022-10-19T00:14:58.272Z,11.90
2022-10-19T00:15:59.888Z,11.96
2022-10-19T00:17:01.505Z,11.90
2022-10-19T00:18:03.039Z,11.89
2022-10-19T00:19:07.196Z,11.87
2022-10-19T00:20:09.508Z,11.85
2022-10-19T00:21:13.257Z,11.85
2022-10-19T00:22:14.961Z,11.79
2022-10-19T00:23:16.527Z,11.83
2022-10-19T00:24:18.215Z,11.83
2022-10-19T00:25:19.793Z,11.82
2022-10-19T00:26:21.415Z,11.82
2022-10-19T00:27:22.957Z,11.82
2022-10-19T00:28:24.580Z,11.83
2022-10-19T00:29:26.143Z,11.82
2022-10-19T00:30:27.690Z,11.85
2022-10-19T00:31:29.332Z,11.89
2022-10-19T00:32:31.161Z,11.86
2022-10-19T00:33:33.418Z,11.83
2022-10-19T00:34:35.055Z,11.90
2022-10-19T00:35:40.498Z,11.89
2022-10-19T00:36:42.068Z,11.87
2022-10-19T00:37:43.670Z,11.92
2022-10-19T00:38:45.486Z,11.93
2022-10-19T00:39:47.165Z,11.95
2022-10-19T00:40:48.811Z,11.95
2022-10-19T00:41:50.453Z,11.99
2022-10-19T00:42:55.940Z,11.97
2022-10-19T00:44:01.824Z,11.95
2022-10-19T00:45:16.150Z,11.99
2022-10-19T00:46:17.691Z,11.99
2022-10-19T00:47:19.391Z,12.03
2022-10-19T00:48:30.850Z,12.05
2022-10-19T00:49:34.507Z,12.07
2022-10-19T00:50:36.166Z,12.00
2022-10-19T00:51:39.745Z,12.02
2022-10-19T00:52:41.400Z,12.03
2022-10-19T00:53:43.020Z,12.09
2022-10-19T00:54:45.734Z,12.06
2022-10-19T00:55:47.322Z,12.10
2022-10-19T00:56:50.031Z,12.12
2022-10-19T00:58:58.220Z,12.17
2022-10-19T00:59:59.793Z,12.22
2022-10-19T01:01:02.059Z,12.20
2022-10-19T01:02:04.473Z,12.20
2022-10-19T01:03:06.032Z,12.20
2022-10-19T01:04:07.652Z,12.22
2022-10-19T01:05:09.373Z,12.23
2022-10-19T01:06:12.212Z,12.29
2022-10-19T01:07:14.049Z,12.32
2022-10-19T01:08:15.666Z,12.34
2022-10-19T01:09:17.237Z,12.36
2022-10-19T01:10:18.774Z,12.40
2022-10-19T01:11:39.315Z,12.40
2022-10-19T01:12:51.718Z,12.36
2022-10-19T01:14:15.168Z,12.41
2022-10-19T01:15:22.375Z,12.40
2022-10-19T01:17:02.838Z,12.46
2022-10-19T01:18:26.778Z,12.53
2022-10-19T01:19:35.808Z,12.57
2022-10-19T01:21:34.391Z,12.60
2022-10-19T01:23:10.301Z,12.63
2022-10-19T01:24:14.457Z,12.64
2022-10-19T01:25:24.963Z,12.64
2022-10-19T01:26:53.445Z,12.65
2022-10-19T01:28:19.471Z,12.68
2022-10-19T01:29:37.052Z,12.71
2022-10-19T01:31:01.990Z,12.64
2022-10-19T01:32:06.706Z,12.60
2022-10-19T01:33:17.034Z,12.61
2022-10-19T01:34:42.857Z,12.57
2022-10-19T01:36:01.255Z,12.57
2022-10-19T01:37:07.397Z,12.54
2022-10-19T01:38:17.900Z,12.51
2022-10-19T01:39:32.447Z,12.54
2022-10-19T01:40:42.640Z,12.48
2022-10-19T01:42:03.525Z,12.46
2022-10-19T01:43:11.585Z,12.36
2022-10-19T01:44:39.225Z,12.37
2022-10-19T01:45:52.703Z,12.32
2022-10-19T01:46:58.737Z,12.34
2022-10-19T01:48:11.215Z,12.30
2022-10-19T01:49:39.451Z,12.30
2022-10-19T01:50:48.105Z,12.29
2022-10-19T01:51:51.970Z,12.25
2022-10-19T01:52:53.713Z,12.20
2022-10-19T01:53:57.110Z,12.16
2022-10-19T01:54:59.064Z,12.13
2022-10-19T01:56:00.602Z,12.12
2022-10-19T01:57:02.343Z,12.09
2022-10-19T01:58:08.378Z,12.03
2022-10-19T01:59:11.353Z,12.02
2022-10-19T02:00:13.399Z,12.02
2022-10-19T02:01:15.911Z,12.03
2022-10-19T02:02:17.539Z,12.00
2022-10-19T02:03:19.133Z,12.00
2022-10-19T02:04:21.929Z,11.97
2022-10-19T02:05:27.074Z,11.93
2022-10-19T02:06:28.805Z,11.95
2022-10-19T02:07:30.340Z,11.95
2022-10-19T02:08:44.382Z,11.96
2022-10-19T02:09:46.004Z,11.95
2022-10-19T02:10:47.547Z,12.02
2022-10-19T02:11:57.248Z,11.97
2022-10-19T02:12:59.072Z,12.06
2022-10-19T02:14:04.326Z,12.09
2022-10-19T02:15:09.958Z,12.15
2022-10-19T02:16:19.500Z,12.22
2022-10-19T02:17:23.456Z,12.26
2022-10-19T02:18:31.588Z,12.32
2022-10-19T02:19:33.206Z,12.36
2022-10-19T02:20:35.473Z,12.41
2022-10-19T02:21:37.069Z,12.47
2022-10-19T02:22:38.637Z,12.53
2022-10-19T02:23:40.208Z,12.56
2022-10-19T02:24:41.819Z,12.61
2022-10-19T02:25:43.380Z,12.67
2022-10-19T02:26:44.955Z,12.67
2022-10-19T02:27:46.514Z,12.73
2022-10-19T02:28:48.125Z,12.77
2022-10-19T02:29:49.689Z,12.80
2022-10-19T02:30:51.321Z,12.83
2022-10-19T02:31:52.964Z,12.87
2022-10-19T02:32:54.524Z,12.95
2022-10-19T02:33:56.118Z,13.04
2022-10-19T02:34:58.243Z,13.11
2022-10-19T02:35:59.811Z,13.16
2022-10-19T02:37:01.375Z,13.16
2022-10-19T02:38:02.954Z,13.16
2022-10-19T02:39:04.623Z,13.09
2022-10-19T02:40:06.716Z,12.99
2022-10-19T02:41:15.669Z,12.85
2022-10-19T02:42:24.649Z,12.80
2022-10-19T02:43:26.209Z,12.71
2022-10-19T02:44:48.389Z,12.64
2022-10-19T02:46:01.882Z,12.57
2022-10-19T02:47:25.751Z,12.58
2022-10-19T02:48:27.788Z,12.61
2022-10-19T02:49:29.730Z,12.64
2022-10-19T02:50:31.277Z,12.65
2022-10-19T02:51:40.472Z,12.68
2022-10-19T02:52:42.158Z,12.69
2022-10-19T02:53:43.679Z,12.74
2022-10-19T02:54:45.315Z,12.78
2022-10-19T02:55:48.417Z,12.87
2022-10-19T02:56:50.046Z,12.89
2022-10-19T02:57:51.709Z,12.92
2022-10-19T02:58:53.317Z,12.98
2022-10-19T02:59:54.880Z,13.05
2022-10-19T03:00:56.477Z,13.08
2022-10-19T03:01:58.107Z,13.11
2022-10-19T03:03:00.011Z,13.18
2022-10-19T03:04:01.565Z,13.19
2022-10-19T03:05:03.780Z,13.23
2022-10-19T03:06:05.330Z,13.25
2022-10-19T03:07:07.008Z,13.26
2022-10-19T03:08:08.599Z,13.29
2022-10-19T03:09:10.160Z,13.30
2022-10-19T03:10:11.695Z,13.34
2022-10-19T03:11:13.309Z,13.34
2022-10-19T03:12:14.865Z,13.30
2022-10-19T03:13:16.436Z,13.28
2022-10-19T03:14:17.960Z,13.29
2022-10-19T03:15:19.681Z,13.28
2022-10-19T03:16:21.303Z,13.23
2022-10-19T03:17:22.917Z,13.19
2022-10-19T03:18:24.486Z,13.22
2022-10-19T03:19:26.132Z,13.18
2022-10-19T03:20:28.171Z,13.16
2022-10-19T03:21:29.838Z,13.16
2022-10-19T03:22:31.421Z,13.15
2022-10-19T03:23:33.148Z,13.16
2022-10-19T03:24:34.725Z,13.11
2022-10-19T03:25:36.358Z,13.12
2022-10-19T03:26:37.963Z,13.14
2022-10-19T03:27:39.492Z,13.12
2022-10-19T03:28:41.156Z,13.12
2022-10-19T03:29:42.788Z,13.14
2022-10-19T03:30:44.347Z,13.09
2022-10-19T03:31:45.949Z,13.11
2022-10-19T03:32:47.636Z,13.11
2022-10-19T03:33:50.497Z,13.08
2022-10-19T03:34:52.056Z,13.08
2022-10-19T03:36:19.638Z,13.01
2022-10-19T03:37:21.215Z,13.01
2022-10-19T03:38:22.907Z,12.95
2022-10-19T03:39:24.458Z,12.89
2022-10-19T03:40:25.986Z,12.84
2022-10-19T03:41:30.904Z,12.81
2022-10-19T03:42:32.467Z,12.78
2022-10-19T03:43:34.232Z,12.80
2022-10-19T03:44:35.807Z,12.76
2022-10-19T03:45:37.524Z,12.73
2022-10-19T03:46:39.205Z,12.71
2022-10-19T03:47:40.761Z,12.69
2022-10-19T03:48:42.561Z,12.68
2022-10-19T03:49:44.154Z,12.63
2022-10-19T03:50:45.783Z,12.64
2022-10-19T03:51:47.531Z,12.67
2022-10-19T03:52:49.693Z,12.64
2022-10-19T03:53:55.785Z,12.63
2022-10-19T03:54:57.370Z,12.63
2022-10-19T03:56:03.763Z,12.60
2022-10-19T03:57:05.438Z,12.56
2022-10-19T03:58:06.995Z,12.53
2022-10-19T03:59:08.784Z,12.47
2022-10-19T04:00:10.937Z,12.38
2022-10-19T04:01:23.348Z,12.38
2022-10-19T04:02:25.057Z,12.30
2022-10-19T04:03:26.744Z,12.29
2022-10-19T04:04:28.310Z,12.29
2022-10-19T04:05:29.877Z,12.25
2022-10-19T04:06:33.351Z,12.19
2022-10-19T04:07:35.160Z,12.16
2022-10-19T04:08:37.129Z,12.07
2022-10-19T04:09:39.290Z,12.03
2022-10-19T04:10:40.865Z,12.02
2022-10-19T04:11:42.590Z,12.00
2022-10-19T04:12:44.161Z,11.90
2022-10-19T04:13:48.419Z,11.87
2022-10-19T04:14:57.170Z,11.81
2022-10-19T04:15:59.394Z,11.72
2022-10-19T04:17:02.010Z,11.68
2022-10-19T04:18:03.668Z,11.66
2022-10-19T04:19:05.234Z,11.65
2022-10-19T04:20:07.528Z,11.62
2022-10-19T04:21:32.878Z,11.65
2022-10-19T04:22:34.480Z,11.62
2022-10-19T04:23:36.110Z,11.55
2022-10-19T04:24:37.716Z,11.44
2022-10-19T04:25:39.281Z,11.42
2022-10-19T04:26:43.058Z,11.38
2022-10-19T04:27:46.049Z,11.31
2022-10-19T04:28:47.648Z,11.31
2022-10-19T04:29:49.237Z,11.34
2022-10-19T04:30:50.808Z,11.34
2022-10-19T04:31:52.479Z,11.32
2022-10-19T04:32:54.117Z,11.28
2022-10-19T04:33:56.001Z,11.27
2022-10-19T04:34:57.586Z,11.30
2022-10-19T04:36:04.138Z,11.28
2022-10-19T04:37:05.732Z,11.27
2022-10-19T04:38:07.368Z,11.24
2022-10-19T04:39:09.163Z,11.21
2022-10-19T04:40:14.888Z,11.14
2022-10-19T04:41:18.106Z,11.07
2022-10-19T04:42:19.804Z,11.14
2022-10-19T04:43:21.473Z,11.08
2022-10-19T04:45:25.568Z,11.10
2022-10-19T04:46:27.439Z,11.08
2022-10-19T04:47:29.728Z,11.10
2022-10-19T04:48:31.377Z,11.04
2022-10-19T04:49:32.938Z,11.06
2022-10-19T04:50:34.521Z,11.08
2022-10-19T04:51:36.085Z,11.08
2022-10-19T04:52:37.730Z,11.11
2022-10-19T04:53:40.187Z,11.06
2022-10-19T04:54:41.715Z,11.07
2022-10-19T04:55:43.368Z,11.08
2022-10-19T04:56:44.947Z,10.99
2022-10-19T04:57:46.497Z,11.00
2022-10-19T04:58:48.219Z,11.01
2022-10-19T04:59:49.785Z,11.03
2022-10-19T05:00:51.480Z,11.00
2022-10-19T05:01:53.086Z,10.93
2022-10-19T05:02:54.655Z,10.97
2022-10-19T05:05:03.839Z,11.06
2022-10-19T05:06:05.846Z,11.07
2022-10-19T05:07:07.502Z,11.14
2022-10-19T05:08:09.663Z,11.15
2022-10-19T05:09:11.222Z,11.20
2022-10-19T05:10:12.894Z,11.25
2022-10-19T05:11:14.974Z,11.32
2022-10-19T05:12:16.536Z,11.39
2022-10-19T05:13:18.165Z,11.44
2022-10-19T05:14:19.781Z,11.50
2022-10-19T05:15:21.448Z,11.52
2022-10-19T05:16:23.451Z,11.58
2022-10-19T05:17:25.077Z,11.66
2022-10-19T05:18:26.802Z,11.68
2022-10-19T05:19:28.913Z,11.76
2022-10-19T05:20:30.545Z,11.76
2022-10-19T05:21:32.472Z,11.82
2022-10-19T05:22:34.097Z,11.82
2022-10-19T05:23:35.718Z,11.87
2022-10-19T05:24:37.269Z,11.90
2022-10-19T05:25:38.855Z,11.93
2022-10-19T05:26:40.416Z,11.93
2022-10-19T05:27:42.053Z,11.90
2022-10-19T05:28:47.437Z,11.93
2022-10-19T05:29:49.120Z,11.96
2022-10-19T05:30:50.685Z,11.96
2022-10-19T05:31:52.292Z,12.00
2022-10-19T05:32:53.842Z,12.02
2022-10-19T05:33:58.854Z,12.03
2022-10-19T05:35:00.490Z,12.09
2022-10-19T05:36:12.371Z,12.13
2022-10-19T05:37:14.003Z,12.15
2022-10-19T05:38:15.572Z,12.13
2022-10-19T05:39:17.645Z,12.13
2022-10-19T05:40:19.208Z,12.15
2022-10-19T05:41:21.233Z,12.13
2022-10-19T05:42:22.834Z,12.20
2022-10-19T05:43:24.408Z,12.20
2022-10-19T05:44:25.961Z,12.23
2022-10-19T05:45:27.591Z,12.22
2022-10-19T05:46:29.558Z,12.29
2022-10-19T05:47:31.664Z,12.40
2022-10-19T05:48:34.048Z,12.48
2022-10-19T05:49:35.599Z,12.67
2022-10-19T05:50:37.130Z,12.71
2022-10-19T05:51:38.988Z,12.80
2022-10-19T05:52:40.550Z,12.91
2022-10-19T05:53:42.141Z,13.07
2022-10-19T05:54:43.834Z,13.22
2022-10-19T05:55:45.406Z,13.35
2022-10-19T05:56:47.221Z,13.48
2022-10-19T05:57:48.791Z,13.52
2022-10-19T05:58:50.578Z,13.56
2022-10-19T05:59:52.168Z,13.36
2022-10-19T06:00:54.510Z,13.36
2022-10-19T06:01:56.166Z,13.35
2022-10-19T06:02:59.192Z,13.28
2022-10-19T06:04:01.104Z,13.30
2022-10-19T06:05:02.752Z,13.23
2022-10-19T06:06:05.189Z,13.18
2022-10-19T06:07:06.797Z,13.15
2022-10-19T06:08:08.333Z,13.16
2022-10-19T06:09:10.042Z,12.99
2022-10-19T06:10:11.641Z,13.01
2022-10-19T12:35:25.903Z,18.64
2022-10-19T12:36:45.641Z,18.56
2022-10-19T12:37:54.452Z,18.49
2022-10-19T12:39:25.153Z,18.22
2022-10-19T12:40:36.839Z,18.25
2022-10-19T12:41:52.324Z,18.26
2022-10-19T12:43:40.158Z,18.26
2022-10-19T12:45:13.815Z,18.29
2022-10-19T12:46:44.017Z,18.17
2022-10-19T12:48:07.909Z,18.17
2022-10-19T12:49:31.183Z,18.16
2022-10-19T12:50:51.583Z,18.16
2022-10-19T12:51:54.007Z,18.22
2022-10-19T12:52:55.643Z,18.19
2022-10-19T12:54:07.777Z,18.23
2022-10-19T12:55:15.191Z,18.22
2022-10-19T12:56:21.922Z,18.23
2022-10-19T12:57:27.565Z,18.21
2022-10-19T12:58:51.197Z,18.13
2022-10-19T13:00:00.265Z,18.15
2022-10-19T13:01:03.532Z,18.12
2022-10-19T13:02:06.252Z,18.16
2022-10-19T13:03:16.053Z,18.15
2022-10-19T13:04:25.077Z,18.17
2022-10-19T13:05:28.088Z,18.10
2022-10-19T13:06:32.048Z,18.15
2022-10-19T13:07:34.664Z,18.16
2022-10-19T13:08:42.968Z,18.21
2022-10-19T13:09:46.275Z,18.19
2022-10-19T13:11:03.768Z,18.13
2022-10-19T13:12:21.571Z,18.16
2022-10-19T13:14:02.076Z,18.17
2022-10-19T13:15:04.359Z,18.19
2022-10-19T13:16:29.097Z,18.17
2022-10-19T13:17:41.208Z,18.16
2022-10-19T13:19:12.135Z,18.17
2022-10-19T13:20:13.896Z,18.19
2022-10-19T13:22:02.102Z,18.19
2022-10-19T13:23:07.439Z,18.17
2022-10-19T13:24:23.984Z,18.19
2022-10-19T13:25:35.366Z,18.19
2022-10-19T13:26:38.514Z,18.16
2022-10-19T13:27:40.424Z,18.17
2022-10-19T13:28:52.322Z,18.21
2022-10-19T13:29:54.094Z,18.19
2022-10-19T13:31:04.834Z,18.23
2022-10-19T13:32:38.198Z,18.25
2022-10-19T13:33:46.670Z,18.22
2022-10-19T13:34:48.264Z,18.16
2022-10-19T13:35:49.822Z,18.10
2022-10-19T13:37:00.772Z,18.13
2022-10-19T13:38:17.213Z,18.08
2022-10-19T13:39:25.654Z,18.05
2022-10-19T13:40:27.229Z,18.09
2022-10-19T13:41:47.734Z,18.06
2022-10-19T13:42:57.931Z,18.08
2022-10-19T13:44:02.284Z,18.08
2022-10-19T13:45:04.809Z,18.06
2022-10-19T13:46:10.254Z,18.09
2022-10-19T13:47:21.569Z,18.12
2022-10-19T13:48:28.063Z,18.13
2022-10-19T13:49:38.621Z,18.15
2022-10-19T13:50:46.514Z,18.12
2022-10-19T13:51:54.234Z,18.15
2022-10-19T13:53:02.287Z,18.13
2022-10-19T13:54:34.918Z,18.09
2022-10-19T13:56:00.349Z,18.02
2022-10-19T13:57:11.579Z,17.95
2022-10-19T13:58:37.327Z,17.94
2022-10-19T14:00:12.991Z,17.96
2022-10-19T14:01:21.301Z,17.94
2022-10-19T14:02:50.729Z,17.86
2022-10-19T14:03:55.969Z,17.79
2022-10-19T14:05:18.981Z,17.78
2022-10-19T14:06:44.754Z,17.71
2022-10-19T14:07:49.553Z,17.72
2022-10-19T14:09:09.476Z,17.71
2022-10-19T14:10:17.880Z,17.72
2022-10-19T14:11:40.596Z,17.64
2022-10-19T14:12:42.981Z,17.67
2022-10-19T14:13:44.639Z,17.61
2022-10-19T14:14:46.202Z,17.60
2022-10-19T14:15:52.759Z,17.64
2022-10-19T14:16:58.442Z,17.57
2022-10-19T14:18:05.799Z,17.55
2022-10-19T14:19:12.641Z,17.54
2022-10-19T14:20:37.075Z,17.55
2022-10-19T14:21:38.650Z,17.54
2022-10-19T14:22:40.849Z,17.54
2022-10-19T14:23:42.860Z,17.54
2022-10-19T14:24:44.558Z,17.50
2022-10-19T14:25:56.585Z,17.50
2022-10-19T14:27:07.240Z,17.40
2022-10-19T14:28:08.842Z,17.38
2022-10-19T14:29:12.070Z,17.35
2022-10-19T14:30:22.777Z,17.30
2022-10-19T14:31:26.422Z,17.28
2022-10-19T14:32:28.880Z,17.27
2022-10-19T14:33:32.971Z,17.24
2022-10-19T14:34:34.533Z,17.27
2022-10-19T14:35:37.850Z,17.28
2022-10-19T14:36:43.380Z,17.28
2022-10-19T14:37:44.968Z,17.24
2022-10-19T14:38:46.868Z,17.24
2022-10-19T14:40:08.855Z,17.13
2022-10-19T14:41:28.868Z,17.07
2022-10-19T14:42:43.965Z,17.00
2022-10-19T14:43:45.751Z,16.97
2022-10-19T14:44:47.429Z,16.94
2022-10-19T14:46:07.451Z,16.96
2022-10-19T14:47:19.356Z,16.93
2022-10-19T14:48:20.916Z,16.89
2022-10-19T14:49:22.475Z,16.75
2022-10-19T14:50:33.463Z,16.80
2022-10-19T14:51:43.696Z,16.75
2022-10-19T14:52:45.263Z,16.76
2022-10-19T14:53:50.704Z,16.68
2022-10-19T14:54:52.553Z,16.65
2022-10-19T14:55:55.178Z,16.68
2022-10-19T14:57:01.949Z,16.66
2022-10-19T14:58:03.757Z,16.58
2022-10-19T14:59:22.884Z,16.56
2022-10-19T15:01:31.127Z,16.49
2022-10-19T15:02:34.474Z,16.47
2022-10-19T15:03:38.129Z,16.42
2022-10-19T15:04:42.998Z,16.39
2022-10-19T15:05:48.563Z,16.35
2022-10-19T15:06:50.250Z,16.35
2022-10-19T15:07:51.896Z,16.33
2022-10-19T15:09:36.768Z,16.26
2022-10-19T15:10:43.445Z,16.25
2022-10-19T15:11:46.797Z,16.28
2022-10-19T15:12:48.607Z,16.17
2022-10-19T15:13:53.372Z,16.18
2022-10-19T15:14:55.053Z,16.15
2022-10-19T15:15:56.710Z,16.15
2022-10-19T15:16:59.652Z,16.11
2022-10-19T15:18:01.280Z,16.07
2022-10-19T15:19:04.930Z,16.00
2022-10-19T15:20:22.459Z,16.00
2022-10-19T15:21:24.024Z,16.01
2022-10-19T15:22:31.942Z,15.98
2022-10-19T15:23:40.074Z,15.95
2022-10-19T15:25:00.871Z,15.90
2022-10-19T15:26:07.226Z,15.86
2022-10-19T15:27:22.125Z,15.83
2022-10-19T15:28:41.448Z,15.77
2022-10-19T15:29:56.378Z,15.73
2022-10-19T15:31:01.974Z,15.70
2022-10-19T15:32:14.313Z,15.68
2022-10-19T15:33:15.939Z,15.61
2022-10-19T15:34:28.759Z,15.60
2022-10-19T15:35:32.139Z,15.54
2022-10-19T15:36:33.726Z,15.56
2022-10-19T15:37:35.299Z,15.49
2022-10-19T15:38:36.972Z,15.47
2022-10-19T15:39:42.163Z,15.47
2022-10-19T15:40:45.587Z,15.46
2022-10-19T15:41:47.228Z,15.46
2022-10-19T15:42:49.137Z,15.44
2022-10-19T15:43:52.205Z,15.35
2022-10-19T15:44:53.800Z,15.37
2022-10-19T15:46:14.008Z,15.36
2022-10-19T15:47:15.617Z,15.35
2022-10-19T15:48:26.266Z,15.33
2022-10-19T15:49:43.228Z,15.29
2022-10-19T15:50:48.446Z,15.27
2022-10-19T15:51:50.237Z,15.25
2022-10-19T15:52:51.811Z,15.23
2022-10-19T15:53:55.966Z,15.22
2022-10-19T15:54:58.576Z,15.16
2022-10-19T15:56:00.349Z,15.20
2022-10-19T15:57:01.946Z,15.16
2022-10-19T15:58:03.503Z,15.18
2022-10-19T15:59:13.186Z,15.09
2022-10-19T16:00:16.603Z,15.12
2022-10-19T16:01:20.046Z,15.07
2022-10-19T16:02:22.085Z,15.02
2022-10-19T16:03:23.696Z,15.00
2022-10-19T16:04:25.253Z,14.96
2022-10-19T16:05:26.930Z,14.96
2022-10-19T16:06:29.810Z,14.88
2022-10-19T16:07:32.750Z,14.86
2022-10-19T16:08:34.603Z,14.81
2022-10-19T16:09:36.266Z,14.81
2022-10-19T16:10:37.919Z,14.75
2022-10-19T16:11:39.481Z,14.78
2022-10-19T16:12:41.106Z,14.81
2022-10-19T16:13:42.759Z,14.78
2022-10-19T16:14:44.354Z,14.76
2022-10-19T16:15:50.008Z,14.79
2022-10-19T16:17:01.071Z,14.79
2022-10-19T16:18:02.646Z,14.71
2022-10-19T16:19:04.261Z,14.62
2022-10-19T16:20:06.559Z,14.65
2022-10-19T16:21:08.156Z,14.62
2022-10-19T16:22:09.808Z,14.65
2022-10-19T16:23:12.911Z,14.62
2022-10-19T16:24:14.877Z,14.64
2022-10-19T16:25:16.595Z,14.57
2022-10-19T16:26:18.739Z,14.58
2022-10-19T16:27:20.358Z,14.54
2022-10-19T16:28:22.192Z,14.55
2022-10-19T16:29:28.162Z,14.52
2022-10-19T16:30:30.648Z,14.48
2022-10-19T16:31:32.594Z,14.48
2022-10-19T16:32:34.339Z,14.48
2022-10-19T16:33:35.949Z,14.45
2022-10-19T16:34:38.088Z,14.44
2022-10-19T16:35:39.661Z,14.42
2022-10-19T16:36:41.286Z,14.34
2022-10-19T16:37:43.025Z,14.35
2022-10-19T16:38:44.637Z,14.31
2022-10-19T16:39:46.239Z,14.27
2022-10-19T16:40:47.855Z,14.23
2022-10-19T16:41:49.507Z,14.23
2022-10-19T16:42:51.348Z,14.17
2022-10-19T16:43:56.169Z,14.13
2022-10-19T16:44:57.777Z,14.17
2022-10-19T16:45:59.403Z,14.13
2022-10-19T16:47:01.266Z,14.13
2022-10-19T16:48:03.022Z,14.09
2022-10-19T16:49:04.661Z,14.06
2022-10-19T16:50:06.468Z,14.07
2022-10-19T16:51:08.352Z,14.03
2022-10-19T16:52:13.841Z,14.04
2022-10-19T16:53:15.543Z,14.04
2022-10-19T16:54:17.748Z,14.06
2022-10-19T16:55:19.416Z,14.03
2022-10-19T16:56:20.956Z,13.99
2022-10-19T16:57:22.554Z,13.99
2022-10-19T16:58:24.222Z,13.97
2022-10-19T16:59:27.000Z,14.01
2022-10-19T17:00:29.068Z,14.01
2022-10-19T17:01:31.136Z,13.99
2022-10-19T17:02:32.982Z,13.94
2022-10-19T17:03:34.926Z,13.97
2022-10-19T17:04:36.914Z,13.96
2022-10-19T17:05:39.440Z,13.87
2022-10-19T17:06:41.057Z,13.91
2022-10-19T17:07:42.680Z,13.84
2022-10-19T17:09:14.771Z,13.80
2022-10-19T17:10:06.386Z,13.83
2022-10-19T17:11:16.112Z,13.77
2022-10-19T17:12:17.786Z,13.70
2022-10-19T17:13:19.948Z,13.70
2022-10-19T17:14:22.101Z,13.71
2022-10-19T17:15:42.118Z,13.67
2022-10-19T17:16:44.473Z,13.67
2022-10-19T17:17:46.185Z,13.65
2022-10-19T17:18:48.328Z,13.63
2022-10-19T17:19:50.104Z,13.66
2022-10-19T17:20:52.190Z,13.60
2022-10-19T17:21:58.033Z,13.66
2022-10-19T17:23:00.088Z,13.60
2022-10-19T17:24:02.918Z,13.60
2022-10-19T17:25:05.269Z,13.60
2022-10-19T17:26:07.310Z,13.56
2022-10-19T17:27:09.314Z,13.56
2022-10-19T17:28:11.316Z,13.49
2022-10-19T17:29:13.583Z,13.39
2022-10-19T17:30:15.640Z,13.45
2022-10-19T17:31:18.146Z,13.40
2022-10-19T17:32:20.282Z,13.45
2022-10-19T17:33:22.896Z,13.45
2022-10-19T17:34:24.992Z,13.43
2022-10-19T17:35:27.740Z,13.46
2022-10-19T17:36:31.637Z,13.45
2022-10-19T17:37:33.509Z,13.46
2022-10-19T17:38:36.177Z,13.42
2022-10-19T17:39:38.295Z,13.43
2022-10-19T17:40:40.443Z,13.40
2022-10-19T17:41:42.550Z,13.36
2022-10-19T17:42:44.685Z,13.36
2022-10-19T17:43:47.095Z,13.26
2022-10-19T17:44:48.627Z,13.30
2022-10-19T17:45:58.051Z,13.29
2022-10-19T17:47:00.885Z,13.23
2022-10-19T17:48:02.943Z,13.26
2022-10-19T17:49:05.369Z,13.25
2022-10-19T17:50:07.886Z,13.28
2022-10-19T17:51:21.013Z,13.30
2022-10-19T17:52:22.711Z,13.28
2022-10-19T17:53:24.887Z,13.20
2022-10-19T17:54:27.131Z,13.20
2022-10-19T17:55:29.411Z,13.16
2022-10-19T17:56:31.582Z,13.04
2022-10-19T17:57:38.195Z,13.05
2022-10-19T17:58:41.453Z,13.01
2022-10-19T17:59:52.395Z,12.99
2022-10-19T18:00:56.295Z,12.99
2022-10-19T18:01:58.418Z,12.91
2022-10-19T18:03:00.429Z,12.94
2022-10-19T18:04:02.708Z,12.91
2022-10-19T18:05:05.775Z,12.92
2022-10-19T18:06:12.986Z,12.91
2022-10-19T18:07:15.129Z,12.89
2022-10-19T18:08:17.524Z,12.88
2022-10-19T18:09:19.693Z,12.80
2022-10-19T18:10:21.796Z,12.87
2022-10-19T18:11:24.817Z,12.84
2022-10-19T18:12:27.251Z,12.78
2022-10-19T18:13:29.634Z,12.81
2022-10-19T18:14:31.755Z,12.81
2022-10-19T18:15:33.837Z,12.83
2022-10-19T18:16:38.057Z,12.85
2022-10-19T18:17:39.982Z,12.83
2022-10-19T18:18:43.214Z,12.76
2022-10-19T18:19:45.388Z,12.74
2022-10-19T18:20:47.709Z,12.73
2022-10-19T18:21:49.761Z,12.68
2022-10-19T18:22:51.929Z,12.63
2022-10-19T18:23:53.782Z,12.48
2022-10-19T18:24:56.274Z,12.47
2022-10-19T18:26:06.048Z,12.51
2022-10-19T18:27:08.020Z,12.48
2022-10-19T18:28:09.705Z,12.53
2022-10-19T18:29:15.347Z,12.51
2022-10-19T18:30:17.429Z,12.46
2022-10-19T18:31:20.778Z,12.47
2022-10-19T18:32:22.652Z,12.47
2022-10-19T18:33:29.036Z,12.46
2022-10-19T18:34:33.383Z,12.43
2022-10-19T18:35:36.301Z,12.48
2022-10-19T18:36:41.438Z,12.44
2022-10-19T18:37:43.463Z,12.40
2022-10-19T18:38:45.556Z,12.38
2022-10-19T18:39:47.678Z,12.34
2022-10-19T18:40:49.786Z,12.36
2022-10-19T18:41:54.691Z,12.36
2022-10-19T18:42:57.151Z,12.37
2022-10-19T18:44:04.840Z,12.34
2022-10-19T18:45:07.340Z,12.34
2022-10-19T18:46:09.344Z,12.30
2022-10-19T18:47:13.448Z,12.33
2022-10-19T18:48:16.022Z,12.29
2022-10-19T18:49:18.259Z,12.26
2022-10-19T18:50:20.857Z,12.23
2022-10-19T18:51:26.366Z,12.17
2022-10-19T18:52:28.045Z,12.15
2022-10-19T18:53:31.339Z,12.13
2022-10-19T18:54:33.415Z,12.07
2022-10-19T18:55:35.496Z,12.09
2022-10-19T18:56:46.780Z,12.09
2022-10-19T18:57:48.959Z,12.10
2022-10-19T18:58:51.265Z,12.05
2022-10-19T18:59:53.328Z,12.03
2022-10-19T19:01:16.500Z,12.02
2022-10-19T19:02:22.665Z,12.00
2022-10-19T19:03:30.580Z,11.99
2022-10-19T19:04:32.275Z,11.96
2022-10-19T19:05:34.267Z,11.95
2022-10-19T19:06:36.818Z,11.95
2022-10-19T19:07:39.118Z,11.90
2022-10-19T19:08:41.409Z,11.92
2022-10-19T19:09:44.249Z,11.89
2022-10-19T19:10:46.418Z,11.86
2022-10-19T19:11:48.660Z,11.85
2022-10-19T19:12:51.019Z,11.86
2022-10-19T19:13:55.137Z,11.85
2022-10-19T19:14:57.327Z,11.82
2022-10-19T19:16:00.189Z,11.75
2022-10-19T19:17:02.347Z,11.69
2022-10-19T19:18:05.019Z,11.66
2022-10-19T19:19:07.729Z,11.59
2022-10-19T19:20:10.095Z,11.54
2022-10-19T19:21:16.860Z,11.51
2022-10-19T19:22:18.783Z,11.50
2022-10-19T19:23:20.992Z,11.50
2022-10-19T19:24:22.916Z,11.52
2022-10-19T19:25:25.395Z,11.48
2022-10-19T19:26:29.420Z,11.46
2022-10-19T19:27:32.030Z,11.41
2022-10-19T19:28:36.647Z,11.35
2022-10-19T19:29:41.359Z,11.38
2022-10-19T19:30:44.663Z,11.30
2022-10-19T19:31:47.682Z,11.22
2022-10-19T19:32:49.751Z,11.18
2022-10-19T19:33:51.934Z,11.13
2022-10-19T19:34:54.877Z,11.10
2022-10-19T19:35:57.178Z,11.07
2022-10-19T19:37:00.082Z,11.13
2022-10-19T19:38:02.260Z,11.20
2022-10-19T19:39:04.633Z,11.17
2022-10-19T19:40:07.315Z,11.15
2022-10-19T19:41:11.088Z,11.15
2022-10-19T19:42:13.496Z,11.13
2022-10-19T19:43:16.090Z,11.10
2022-10-19T19:44:18.247Z,10.97
2022-10-19T19:45:20.349Z,10.89
2022-10-19T19:46:22.004Z,10.91
2022-10-19T19:47:24.372Z,10.85
2022-10-19T19:48:26.517Z,10.87
2022-10-19T19:49:28.621Z,10.91
2022-10-19T19:50:30.915Z,10.93
2022-10-19T19:51:34.715Z,10.93
2022-10-19T19:52:40.454Z,10.96
2022-10-19T19:53:42.922Z,10.99
2022-10-19T19:54:44.953Z,10.99
2022-10-19T19:55:47.665Z,10.94
2022-10-19T19:56:53.412Z,10.91
2022-10-19T19:57:55.630Z,10.84
2022-10-19T19:58:58.217Z,10.74
2022-10-19T20:00:00.171Z,10.74
2022-10-19T20:01:12.149Z,10.71
2022-10-19T20:02:16.898Z,10.70
2022-10-19T20:03:18.908Z,10.73
2022-10-19T20:04:20.916Z,10.76
2022-10-19T20:05:22.812Z,10.71
2022-10-19T20:06:26.165Z,10.67
2022-10-19T20:07:28.416Z,10.63
2022-10-19T20:08:30.667Z,10.59
2022-10-19T20:09:32.409Z,10.57
2022-10-19T20:10:41.726Z,10.53
2022-10-19T20:11:44.314Z,10.50
2022-10-19T20:12:46.730Z,10.50
2022-10-19T20:13:48.765Z,10.50
2022-10-19T20:14:50.677Z,10.52
2022-10-19T20:15:54.239Z,10.50
2022-10-19T20:16:56.334Z,10.49
2022-10-19T20:17:58.457Z,10.52
2022-10-19T20:19:05.056Z,10.46
2022-10-19T20:20:07.832Z,10.49
2022-10-19T20:21:11.032Z,10.43
2022-10-19T20:22:13.583Z,10.40
2022-10-19T20:23:15.562Z,10.45
2022-10-19T20:24:17.786Z,10.43
2022-10-19T20:25:19.945Z,10.43
2022-10-19T20:26:22.894Z,10.45